CheckWX is a tool to help pilots better visualize weather data.  It is not intended as a substitute for an official pre-flight weather briefing.

15:17:21 UTC

KDNS METAR
Denison Municipal Airport
Denison, Iowa, USA
Current

22 mins ago

KDNS 261455Z AUTO 10010KT 10SM CLR 19/12 A3011 RMK AO2
Observed
May-26 @ 14:55 UTC
Wind
  • 100° at 10 KTS
Visibility
10 SM
Flight Rules
VFR
Cloud Levels
  • Clear skies
Temperature
19°C / 66°F
Dewpoint
12°C / 54°F
Humidity
64%
Altimeter
30.11" Hg
Pressure
1019.62 hPa
Previous

42 mins ago

KDNS 261435Z AUTO 10010KT 10SM CLR 19/11 A3012 RMK AO2
Observed
May-26 @ 14:35 UTC
Wind
  • 100° at 10 KTS
Visibility
10 SM
Flight Rules
VFR
Cloud Levels
  • Clear skies
Temperature
19°C / 66°F
Dewpoint
11°C / 52°F
Humidity
60%
Altimeter
30.12" Hg
Pressure
1020.02 hPa
Previous

1 hour ago

KDNS 261415Z AUTO 09009KT 10SM CLR 18/11 A3012 RMK AO2
Observed
May-26 @ 14:15 UTC
Wind
  • 090° at 9 KTS
Visibility
10 SM
Flight Rules
VFR
Cloud Levels
  • Clear skies
Temperature
18°C / 64°F
Dewpoint
11°C / 52°F
Humidity
64%
Altimeter
30.12" Hg
Pressure
1020.02 hPa